Sierra Vista

Airport
ICAO code: 
KFHU
Summary
ICAO Region: 
NAM
Territory: 
Location: 
Fort Huachuca, Sierra Vista, Cochise County, Arizona,
Elevation: 
4719 ft
Coordinates: 
Aerial View: 
31° 35' 13.959" N, 110° 20' 51.549" W
Airport RE: 
Hot and High Operations
Metar
Observation
KFHU 040658Z AUTO 00000KT 10SM CLR 10/M07 A3018 RMK AO2 SLP174 T00971066 402150083
Station
Fort Huachuca, Libby AAF Ft Huachuca
Date/Time
2021-12-04 06:58:00
Wind direction
Wind speed
00 kts
Lowest cloud amount
n/a
Temperature
9.7°C
Dew point
-6.6°C
Humidity
31%
Weather condition
n/a

Description

Sierra Vista Municipal Airport, a joint-use airport which shares facilities with Libby Army Airfield, is located on Fort Huachuca in Sierra Vista, a city in Cochise County, Arizona, United States. The airport has three runways and one helipad. It is mostly used for military aviation for the surrounding military base.

Climatology

Cold Semi-arid climate (Köppen climate classification BSk). - Hot, sometimes extremely hot summers and cold, sometimes very cold winters. Some snowfall during the winter. Areas featuring cold semi-arid climates are sometimes subject to major temperature swings during a 24 hour period.

Runways

Designator Length Width Surface Rops
3/21 1306 23 PEM Yes/Yes
12/30 1636 30 PEM Yes/Yes
8/26 3658 46 CON Yes/Yes
Airport map: 
Aerial View: 

SKYbrary Partners:

Safety knowledge contributed by: